createdAt,value
2017-10-18T00:00:53.658Z,9.40
2017-10-18T00:03:21.117Z,9.30
2017-10-18T00:05:49.362Z,9.20
2017-10-18T00:08:17.075Z,9.20
2017-10-18T00:10:44.545Z,9.20
2017-10-18T00:13:12.007Z,9.00
2017-10-18T00:15:39.516Z,8.90
2017-10-18T00:18:06.981Z,8.90
2017-10-18T00:20:34.447Z,8.80
2017-10-18T00:23:01.903Z,8.70
2017-10-18T00:25:29.383Z,8.60
2017-10-18T00:27:56.882Z,8.50
2017-10-18T00:30:24.348Z,8.30
2017-10-18T00:32:51.812Z,8.30
2017-10-18T00:35:19.279Z,8.30
2017-10-18T00:37:47.540Z,8.40
2017-10-18T00:40:15.035Z,8.40
2017-10-18T00:42:42.511Z,7.10
2017-10-18T00:45:09.999Z,8.40
2017-10-18T00:47:37.484Z,8.40
2017-10-18T00:50:04.948Z,8.50
2017-10-18T00:52:32.432Z,8.40
2017-10-18T00:54:59.909Z,8.40
2017-10-18T00:57:27.386Z,8.30
2017-10-18T00:59:54.880Z,8.20
2017-10-18T01:02:23.122Z,8.10
2017-10-18T01:04:50.596Z,8.10
2017-10-18T01:07:18.054Z,8.10
2017-10-18T01:09:45.526Z,8.10
2017-10-18T01:12:13.773Z,8.20
2017-10-18T01:14:41.264Z,8.20
2017-10-18T01:17:09.560Z,8.10
2017-10-18T01:19:37.061Z,8.10
2017-10-18T01:22:04.515Z,8.10
2017-10-18T01:24:31.996Z,8.10
2017-10-18T01:26:59.473Z,8.10
2017-10-18T01:29:27.706Z,7.70
2017-10-18T01:31:55.187Z,7.70
2017-10-18T01:34:22.657Z,7.60
2017-10-18T01:36:50.912Z,7.50
2017-10-18T01:39:18.361Z,7.50
2017-10-18T01:41:45.854Z,7.50
2017-10-18T01:44:13.358Z,7.50
2017-10-18T01:46:40.822Z,7.60
2017-10-18T01:49:08.306Z,7.60
2017-10-18T01:51:36.570Z,7.60
2017-10-18T01:54:04.055Z,7.60
2017-10-18T01:56:32.293Z,7.50
2017-10-18T01:58:59.774Z,7.50
2017-10-18T02:01:27.267Z,7.50
2017-10-18T02:03:54.729Z,7.40
2017-10-18T02:06:22.221Z,7.40
2017-10-18T02:08:49.712Z,7.40
2017-10-18T02:11:17.971Z,7.50
2017-10-18T02:13:45.456Z,7.50
2017-10-18T02:16:13.715Z,7.50
2017-10-18T02:18:41.201Z,7.50
2017-10-18T02:21:08.663Z,7.50
2017-10-18T02:23:36.586Z,7.50
2017-10-18T02:26:04.040Z,7.50
2017-10-18T02:28:31.527Z,7.50
2017-10-18T02:30:59.770Z,7.30
2017-10-18T02:33:27.209Z,7.30
2017-10-18T02:35:54.695Z,7.20
2017-10-18T02:38:22.156Z,7.20
2017-10-18T02:40:49.656Z,7.20
2017-10-18T02:43:17.148Z,7.20
2017-10-18T02:45:44.628Z,7.20
2017-10-18T02:48:12.132Z,7.10
2017-10-18T02:50:39.598Z,7.20
2017-10-18T02:53:07.081Z,7.10
2017-10-18T02:55:34.553Z,7.10
2017-10-18T02:58:02.040Z,7.00
2017-10-18T03:00:29.524Z,7.00
2017-10-18T03:02:56.998Z,6.90
2017-10-18T03:05:24.462Z,6.90
2017-10-18T03:07:51.940Z,6.80
2017-10-18T03:10:19.432Z,6.80
2017-10-18T03:12:46.940Z,6.80
2017-10-18T03:15:14.384Z,6.80
2017-10-18T03:17:41.861Z,6.80
2017-10-18T03:20:09.322Z,6.80
2017-10-18T03:22:36.816Z,6.90
2017-10-18T03:25:04.297Z,6.80
2017-10-18T03:27:31.842Z,6.80
2017-10-18T03:30:00.116Z,6.70
2017-10-18T03:32:27.568Z,6.60
2017-10-18T03:34:55.845Z,6.50
2017-10-18T03:37:24.071Z,6.50
2017-10-18T03:39:51.568Z,6.40
2017-10-18T03:42:19.041Z,6.50
2017-10-18T03:44:47.277Z,6.50
2017-10-18T03:47:14.778Z,6.50
2017-10-18T03:49:43.042Z,6.30
2017-10-18T03:52:11.284Z,6.20
2017-10-18T03:54:38.815Z,6.20
2017-10-18T03:57:06.574Z,6.20
2017-10-18T03:59:34.077Z,6.20
2017-10-18T04:02:02.059Z,6.20
2017-10-18T04:04:29.563Z,6.20
2017-10-18T04:06:57.038Z,6.20
2017-10-18T04:09:24.563Z,6.20
2017-10-18T04:11:52.034Z,6.30
2017-10-18T04:14:19.524Z,6.40
2017-10-18T04:16:47.009Z,6.40
2017-10-18T04:19:14.488Z,6.40
2017-10-18T04:21:41.984Z,6.40
2017-10-18T04:24:09.488Z,6.30
2017-10-18T04:26:36.981Z,6.30
2017-10-18T04:29:04.439Z,6.20
2017-10-18T04:31:31.981Z,6.10
2017-10-18T04:33:59.455Z,6.20
2017-10-18T04:36:27.740Z,6.20
2017-10-18T04:38:55.213Z,6.20
2017-10-18T04:41:22.747Z,6.20
2017-10-18T04:43:50.228Z,6.20
2017-10-18T04:46:17.741Z,6.10
2017-10-18T04:48:45.247Z,6.00
2017-10-18T04:51:12.748Z,5.90
2017-10-18T04:53:40.205Z,5.90
2017-10-18T04:56:07.692Z,6.00
2017-10-18T04:58:35.208Z,6.00
2017-10-18T05:01:02.688Z,6.00
2017-10-18T05:03:30.166Z,6.00
2017-10-18T05:05:57.636Z,6.00
2017-10-18T05:08:25.149Z,5.80
2017-10-18T05:10:52.652Z,5.60
2017-10-18T05:13:20.165Z,5.70
2017-10-18T05:15:47.681Z,5.60
2017-10-18T05:18:15.986Z,5.60
2017-10-18T05:20:43.495Z,5.60
2017-10-18T05:23:10.958Z,5.50
2017-10-18T05:25:38.466Z,5.60
2017-10-18T05:28:06.744Z,5.60
2017-10-18T05:30:34.208Z,5.60
2017-10-18T05:33:02.480Z,5.60
2017-10-18T05:35:29.950Z,5.60
2017-10-18T05:37:57.460Z,5.50
2017-10-18T05:40:24.915Z,5.60
2017-10-18T05:42:52.405Z,5.50
2017-10-18T05:45:19.908Z,5.50
2017-10-18T05:47:47.411Z,5.40
2017-10-18T05:50:15.153Z,5.30
2017-10-18T05:52:42.650Z,5.40
2017-10-18T05:55:10.090Z,5.40
2017-10-18T05:57:37.617Z,5.50
2017-10-18T06:00:05.112Z,5.50
2017-10-18T06:02:32.614Z,5.60
2017-10-18T06:05:00.090Z,5.60
2017-10-18T06:07:27.574Z,5.70
2017-10-18T06:09:55.056Z,5.70
2017-10-18T06:12:23.333Z,5.80
2017-10-18T06:14:50.823Z,5.90
2017-10-18T06:17:18.285Z,5.90
2017-10-18T06:19:45.768Z,5.90
2017-10-18T06:22:13.285Z,5.80
2017-10-18T06:24:40.858Z,5.90
2017-10-18T06:27:08.748Z,5.90
2017-10-18T06:29:36.436Z,5.90
2017-10-18T06:32:05.015Z,5.90
2017-10-18T06:34:32.585Z,5.90
2017-10-18T06:37:00.097Z,6.00
2017-10-18T06:39:27.635Z,6.00
2017-10-18T06:41:55.219Z,6.10
2017-10-18T06:44:22.776Z,6.10
2017-10-18T06:46:50.390Z,6.20
2017-10-18T06:49:21.776Z,6.30
2017-10-18T06:51:49.383Z,6.30
2017-10-18T06:54:17.665Z,6.40
2017-10-18T06:56:45.980Z,6.40
2017-10-18T06:59:13.543Z,6.40
2017-10-18T07:01:41.054Z,6.50
2017-10-18T07:04:09.555Z,6.40
2017-10-18T07:06:38.095Z,6.50
2017-10-18T07:09:05.665Z,6.40
2017-10-18T07:11:33.954Z,6.70
2017-10-18T07:14:02.248Z,7.00
2017-10-18T07:16:30.514Z,7.70
2017-10-18T07:18:59.200Z,8.00
2017-10-18T07:21:27.208Z,8.00
2017-10-18T07:23:54.779Z,8.60
2017-10-18T07:26:22.317Z,9.00
2017-10-18T07:28:49.846Z,9.20
2017-10-18T07:31:18.184Z,9.20
2017-10-18T07:33:45.723Z,9.10
2017-10-18T07:36:13.388Z,9.10
2017-10-18T07:38:40.955Z,9.10
2017-10-18T07:41:08.596Z,9.10
2017-10-18T07:43:36.268Z,9.00
2017-10-18T07:46:03.842Z,9.00
2017-10-18T07:48:31.446Z,9.00
2017-10-18T07:50:59.068Z,9.10
2017-10-18T07:53:26.674Z,9.20
2017-10-18T07:55:54.976Z,9.70
2017-10-18T07:58:23.447Z,9.70
2017-10-18T08:00:51.033Z,9.90
2017-10-18T08:03:18.641Z,10.00
2017-10-18T08:05:46.313Z,10.10
2017-10-18T08:08:14.588Z,10.30
2017-10-18T08:10:43.250Z,10.40
2017-10-18T08:13:10.781Z,10.40
2017-10-18T08:15:38.383Z,10.60
2017-10-18T08:18:05.924Z,10.90
2017-10-18T08:20:33.456Z,11.10
2017-10-18T08:23:01.061Z,11.40
2017-10-18T08:25:28.596Z,11.60
2017-10-18T08:27:56.141Z,11.70
2017-10-18T08:30:23.724Z,11.90
2017-10-18T08:32:51.322Z,11.90
2017-10-18T08:35:18.899Z,12.00
2017-10-18T08:37:46.556Z,12.00
2017-10-18T08:40:14.117Z,12.00
2017-10-18T08:42:41.664Z,12.30
2017-10-18T08:45:09.948Z,12.80
2017-10-18T08:47:37.537Z,12.80
2017-10-18T08:50:05.096Z,13.20
2017-10-18T08:52:32.797Z,13.60
2017-10-18T08:55:00.329Z,13.90
2017-10-18T08:57:27.841Z,14.20
2017-10-18T08:59:56.201Z,14.80
2017-10-18T09:02:24.529Z,15.00
2017-10-18T09:04:52.075Z,15.00
2017-10-18T09:07:19.600Z,15.20
2017-10-18T09:09:47.886Z,15.60
2017-10-18T09:12:15.360Z,15.60
2017-10-18T09:14:42.840Z,15.80
2017-10-18T09:17:10.350Z,16.00
2017-10-18T09:19:38.584Z,16.30
2017-10-18T09:22:12.056Z,16.30
2017-10-18T09:24:39.527Z,16.50
2017-10-18T09:27:07.010Z,16.60
2017-10-18T09:29:34.509Z,16.70
2017-10-18T09:32:02.854Z,16.80
2017-10-18T09:34:30.392Z,17.00
2017-10-18T09:36:57.921Z,17.30
2017-10-18T09:39:25.462Z,17.50
2017-10-18T09:41:52.946Z,17.70
2017-10-18T09:44:20.452Z,17.80
2017-10-18T09:46:47.932Z,17.80
2017-10-18T09:49:16.181Z,18.10
2017-10-18T09:51:43.700Z,18.10
2017-10-18T09:54:11.184Z,18.30
2017-10-18T09:56:38.658Z,18.50
2017-10-18T09:59:06.164Z,18.60
2017-10-18T10:01:33.635Z,18.70
2017-10-18T10:04:01.114Z,18.80
2017-10-18T10:06:28.586Z,18.90
2017-10-18T10:08:56.329Z,19.00
2017-10-18T10:11:23.842Z,18.90
2017-10-18T10:13:51.344Z,19.00
2017-10-18T10:16:18.861Z,19.10
2017-10-18T10:18:46.335Z,19.10
2017-10-18T10:21:13.852Z,19.10
2017-10-18T10:23:42.097Z,19.30
2017-10-18T10:26:09.855Z,19.20
2017-10-18T10:28:37.349Z,19.40
2017-10-18T10:31:05.619Z,19.60
2017-10-18T10:33:33.906Z,19.70
2017-10-18T10:36:01.368Z,19.70
2017-10-18T10:38:29.246Z,19.90
2017-10-18T10:40:56.726Z,19.90
2017-10-18T10:43:24.178Z,19.90
2017-10-18T10:45:51.662Z,19.70
2017-10-18T10:48:19.145Z,19.60
2017-10-18T10:50:47.395Z,19.30
2017-10-18T10:53:14.852Z,19.20
2017-10-18T10:55:42.330Z,18.90
2017-10-18T10:58:10.003Z,18.70
2017-10-18T11:00:38.305Z,18.50
2017-10-18T11:03:05.875Z,18.50
2017-10-18T11:05:33.446Z,18.60
2017-10-18T11:08:01.175Z,18.80
2017-10-18T11:10:28.657Z,19.10
2017-10-18T11:12:56.220Z,19.20
2017-10-18T11:15:23.700Z,19.60
2017-10-18T11:17:51.216Z,19.90
2017-10-18T11:20:18.703Z,20.20
2017-10-18T11:22:46.177Z,20.40
2017-10-18T11:25:13.663Z,20.70
2017-10-18T11:27:42.730Z,20.90
2017-10-18T11:30:10.230Z,20.80
2017-10-18T11:32:37.905Z,21.10
2017-10-18T11:35:06.722Z,21.40
2017-10-18T11:37:34.827Z,21.50
2017-10-18T11:40:03.322Z,21.50
2017-10-18T11:42:31.683Z,21.70
2017-10-18T11:44:59.658Z,21.70
2017-10-18T11:47:27.718Z,21.80
2017-10-18T11:49:56.218Z,21.80
2017-10-18T11:52:23.900Z,22.00
2017-10-18T11:54:52.040Z,22.00
2017-10-18T11:57:19.987Z,21.90
2017-10-18T11:59:48.240Z,21.70
2017-10-18T12:02:16.249Z,21.50
2017-10-18T12:04:44.276Z,21.30
2017-10-18T12:07:12.182Z,21.30
2017-10-18T12:09:39.913Z,21.30
2017-10-18T12:12:08.994Z,24.30
2017-10-18T12:14:36.809Z,21.40
2017-10-18T12:17:04.564Z,21.50
2017-10-18T12:19:32.504Z,21.30
2017-10-18T12:22:00.282Z,21.20
2017-10-18T12:24:28.104Z,21.10
2017-10-18T12:26:55.860Z,21.00
2017-10-18T12:29:24.216Z,20.90
2017-10-18T12:31:52.362Z,20.70
2017-10-18T12:34:20.438Z,20.90
2017-10-18T12:36:49.071Z,21.00
2017-10-18T12:39:17.442Z,21.10
2017-10-18T12:41:52.478Z,21.20
2017-10-18T12:44:20.955Z,21.30
2017-10-18T12:46:49.449Z,21.20
2017-10-18T12:49:17.203Z,21.20
2017-10-18T12:51:45.202Z,20.90
2017-10-18T12:54:13.876Z,20.80
2017-10-18T12:56:41.971Z,20.80
2017-10-18T12:59:09.838Z,20.80
2017-10-18T13:01:38.506Z,20.70
2017-10-18T13:04:06.486Z,20.50
2017-10-18T13:06:34.521Z,20.40
2017-10-18T13:09:02.392Z,20.50
2017-10-18T13:11:30.543Z,20.50
2017-10-18T13:13:58.722Z,20.60
2017-10-18T13:16:27.627Z,20.40
2017-10-18T13:18:57.728Z,20.50
2017-10-18T13:21:25.660Z,20.50
2017-10-18T13:23:53.758Z,20.50
2017-10-18T13:26:22.369Z,20.50
2017-10-18T13:28:50.073Z,20.60
2017-10-18T13:31:18.316Z,20.80
2017-10-18T13:33:47.644Z,21.10
2017-10-18T13:36:16.192Z,21.10
2017-10-18T13:38:43.935Z,21.20
2017-10-18T13:41:12.390Z,21.20
2017-10-18T13:43:40.182Z,20.80
2017-10-18T13:46:07.864Z,20.50
2017-10-18T13:48:35.341Z,20.30
2017-10-18T13:51:02.828Z,20.10
2017-10-18T13:53:30.305Z,20.10
2017-10-18T13:55:57.796Z,20.10
2017-10-18T13:58:26.134Z,20.00
2017-10-18T14:00:53.627Z,19.90
2017-10-18T14:03:21.150Z,20.00
2017-10-18T14:05:48.630Z,20.10
2017-10-18T14:08:16.149Z,20.10
2017-10-18T14:10:43.661Z,20.00
2017-10-18T14:13:11.151Z,20.10
2017-10-18T14:15:38.648Z,20.00
2017-10-18T14:18:06.111Z,20.10
2017-10-18T14:20:33.591Z,20.10
2017-10-18T14:23:01.097Z,20.20
2017-10-18T14:25:28.580Z,20.10
2017-10-18T14:27:56.730Z,20.30
2017-10-18T14:30:24.205Z,20.30
2017-10-18T14:32:51.678Z,20.60
2017-10-18T14:35:19.223Z,20.80
2017-10-18T14:37:46.698Z,20.80
2017-10-18T14:40:14.193Z,20.90
2017-10-18T14:42:42.419Z,21.00
2017-10-18T14:45:10.352Z,21.00
2017-10-18T14:47:37.849Z,21.00
2017-10-18T14:50:05.492Z,21.00
2017-10-18T14:52:32.989Z,21.10
2017-10-18T14:55:00.476Z,21.10
2017-10-18T14:57:28.776Z,20.70
2017-10-18T14:59:56.255Z,20.80
2017-10-18T15:02:23.769Z,20.70
2017-10-18T15:04:51.258Z,20.60
2017-10-18T15:07:18.736Z,20.50
2017-10-18T15:09:46.241Z,20.50
2017-10-18T15:12:13.729Z,20.50
2017-10-18T15:14:41.232Z,20.50
2017-10-18T15:17:08.731Z,20.40
2017-10-18T15:19:36.197Z,20.30
2017-10-18T15:22:03.709Z,20.20
2017-10-18T15:24:31.180Z,20.30
2017-10-18T15:26:59.425Z,20.40
2017-10-18T15:29:26.915Z,20.40
2017-10-18T15:31:55.271Z,19.90
2017-10-18T15:34:22.782Z,19.90
2017-10-18T15:36:50.253Z,19.70
2017-10-18T15:39:17.747Z,19.50
2017-10-18T15:41:45.946Z,19.30
2017-10-18T15:44:13.427Z,19.20
2017-10-18T15:46:40.905Z,19.10
2017-10-18T15:49:08.655Z,19.00
2017-10-18T15:51:36.158Z,18.90
2017-10-18T15:54:03.615Z,18.80
2017-10-18T15:56:31.896Z,18.60
2017-10-18T15:59:00.158Z,18.50
2017-10-18T16:01:27.958Z,18.50
2017-10-18T16:03:55.436Z,18.40
2017-10-18T16:06:22.945Z,18.40
2017-10-18T16:08:50.470Z,18.20
2017-10-18T16:11:17.964Z,18.10
2017-10-18T16:13:45.499Z,18.00
2017-10-18T16:16:13.014Z,17.90
2017-10-18T16:18:40.537Z,17.80
2017-10-18T16:21:08.017Z,17.70
2017-10-18T16:23:36.663Z,17.50
2017-10-18T16:26:04.176Z,18.80
2017-10-18T16:28:31.695Z,17.50
2017-10-18T16:30:59.479Z,17.30
2017-10-18T16:33:27.755Z,17.20
2017-10-18T16:35:55.239Z,17.10
2017-10-18T16:38:22.737Z,17.10
2017-10-18T16:40:50.236Z,17.00
2017-10-18T16:43:18.513Z,16.80
2017-10-18T16:45:46.834Z,16.60
2017-10-18T16:48:14.716Z,16.70
2017-10-18T16:50:42.434Z,16.60
2017-10-18T16:53:09.924Z,16.50
2017-10-18T16:55:37.408Z,16.40
2017-10-18T16:58:04.904Z,16.40
2017-10-18T17:00:32.429Z,16.40
2017-10-18T17:02:59.907Z,16.30
2017-10-18T17:05:28.418Z,16.10
2017-10-18T17:07:57.326Z,16.10
2017-10-18T17:10:24.800Z,16.00
2017-10-18T17:12:52.325Z,15.90
2017-10-18T17:15:19.841Z,15.80
2017-10-18T17:17:47.347Z,15.80
2017-10-18T17:20:14.844Z,15.70
2017-10-18T17:22:42.629Z,15.80
2017-10-18T17:25:10.884Z,15.60
2017-10-18T17:27:38.399Z,15.50
2017-10-18T17:30:05.930Z,15.50
2017-10-18T17:32:34.157Z,15.50
2017-10-18T17:35:01.663Z,15.40
2017-10-18T17:37:30.146Z,15.20
2017-10-18T17:39:58.442Z,15.10
2017-10-18T17:42:26.714Z,14.90
2017-10-18T17:44:54.216Z,14.90
2017-10-18T17:47:21.749Z,14.70
2017-10-18T17:49:49.210Z,14.60
2017-10-18T17:52:16.719Z,14.40
2017-10-18T17:54:44.967Z,14.20
2017-10-18T17:57:12.487Z,14.20
2017-10-18T17:59:40.195Z,14.20
2017-10-18T18:02:07.685Z,14.00
2017-10-18T18:04:35.184Z,13.80
2017-10-18T18:07:02.691Z,13.50
2017-10-18T18:09:30.966Z,13.20
2017-10-18T18:11:59.213Z,13.10
2017-10-18T18:14:26.720Z,13.10
2017-10-18T18:16:54.191Z,13.00
2017-10-18T18:19:21.685Z,12.90
2017-10-18T18:21:49.168Z,12.90
2017-10-18T18:24:16.673Z,12.90
2017-10-18T18:26:44.184Z,12.80
2017-10-18T18:29:12.419Z,12.60
2017-10-18T18:31:39.929Z,16.40
2017-10-18T18:34:08.173Z,12.40
2017-10-18T18:36:35.727Z,12.40
2017-10-18T18:39:03.238Z,12.30
2017-10-18T18:41:30.721Z,12.20
2017-10-18T18:43:58.963Z,12.20
2017-10-18T18:46:27.251Z,12.10
2017-10-18T18:48:54.757Z,12.10
2017-10-18T18:51:23.057Z,11.90
2017-10-18T18:53:51.337Z,11.70
2017-10-18T18:56:19.596Z,11.60
2017-10-18T18:58:47.527Z,11.60
2017-10-18T19:01:15.040Z,11.50
2017-10-18T19:03:43.287Z,11.30
2017-10-18T19:06:10.794Z,11.30
2017-10-18T19:08:39.312Z,11.20
2017-10-18T19:11:06.843Z,11.10
2017-10-18T19:13:34.343Z,11.00
2017-10-18T19:16:01.824Z,11.20
2017-10-18T19:18:29.330Z,11.00
2017-10-18T19:20:57.087Z,11.00
2017-10-18T19:23:24.883Z,11.00
2017-10-18T19:25:52.374Z,10.90
2017-10-18T19:28:19.898Z,11.00
2017-10-18T19:30:47.402Z,10.80
2017-10-18T19:33:14.891Z,10.80
2017-10-18T19:35:42.955Z,10.80
2017-10-18T19:38:10.410Z,10.70
2017-10-18T19:40:37.900Z,10.80
2017-10-18T19:43:05.397Z,10.70
2017-10-18T19:45:33.680Z,10.70
2017-10-18T19:48:01.228Z,10.70
2017-10-18T19:50:28.737Z,10.70
2017-10-18T19:52:56.247Z,10.60
2017-10-18T19:55:23.740Z,10.60
2017-10-18T19:57:51.253Z,10.50
2017-10-18T20:00:19.515Z,10.40
2017-10-18T20:02:47.005Z,10.40
2017-10-18T20:05:14.489Z,10.20
2017-10-18T20:07:41.972Z,10.30
2017-10-18T20:10:09.478Z,10.20
2017-10-18T20:12:37.727Z,10.20
2017-10-18T20:15:05.217Z,10.20
2017-10-18T20:17:32.720Z,10.10
2017-10-18T20:20:00.217Z,10.00
2017-10-18T20:22:28.469Z,10.00
2017-10-18T20:24:56.285Z,9.80
2017-10-18T20:27:23.789Z,9.80
2017-10-18T20:29:51.304Z,9.80
2017-10-18T20:32:18.788Z,9.60
2017-10-18T20:34:46.291Z,9.60
2017-10-18T20:37:13.762Z,9.60
2017-10-18T20:39:41.255Z,9.60
2017-10-18T20:42:08.719Z,9.60
2017-10-18T20:44:36.994Z,9.50
2017-10-18T20:47:04.488Z,9.50
2017-10-18T20:49:32.749Z,9.60
2017-10-18T20:52:00.264Z,9.60
2017-10-18T20:54:27.795Z,9.60
2017-10-18T20:56:55.665Z,9.60
2017-10-18T20:59:23.170Z,9.60
2017-10-18T21:01:50.648Z,9.60
2017-10-18T21:04:18.915Z,9.60
2017-10-18T21:06:46.426Z,9.70
2017-10-18T21:09:13.918Z,9.70
2017-10-18T21:11:41.399Z,9.60
2017-10-18T21:14:08.902Z,9.60
2017-10-18T21:16:36.370Z,9.60
2017-10-18T21:19:03.892Z,9.60
2017-10-18T21:21:31.439Z,9.50
2017-10-18T21:23:58.930Z,9.50
2017-10-18T21:26:26.445Z,9.40
2017-10-18T21:28:53.946Z,9.40
2017-10-18T21:31:21.413Z,9.40
2017-10-18T21:33:48.912Z,9.30
2017-10-18T21:36:16.426Z,9.30
2017-10-18T21:38:44.399Z,10.70
2017-10-18T21:41:11.861Z,9.20
2017-10-18T21:43:39.386Z,9.20
2017-10-18T21:46:07.596Z,9.10
2017-10-18T21:48:35.438Z,9.10
2017-10-18T21:51:02.923Z,9.10
2017-10-18T21:53:30.428Z,9.10
2017-10-18T21:55:58.713Z,9.00
2017-10-18T21:58:27.021Z,9.00
2017-10-18T22:00:54.558Z,9.00
2017-10-18T22:03:22.805Z,8.90
2017-10-18T22:05:50.334Z,8.90
2017-10-18T22:08:17.836Z,8.80
2017-10-18T22:10:45.327Z,8.80
2017-10-18T22:13:12.868Z,8.70
2017-10-18T22:15:40.352Z,8.70
2017-10-18T22:18:09.144Z,8.70
2017-10-18T22:20:37.741Z,8.70
2017-10-18T22:23:05.239Z,8.70
2017-10-18T22:25:32.709Z,8.60
2017-10-18T22:28:00.969Z,8.40
2017-10-18T22:30:28.784Z,8.40
2017-10-18T22:32:56.233Z,8.40
2017-10-18T22:35:23.736Z,8.40
2017-10-18T22:37:51.222Z,8.40
2017-10-18T22:40:19.505Z,8.30
2017-10-18T22:42:47.742Z,8.30
2017-10-18T22:45:15.233Z,8.20
2017-10-18T22:47:43.519Z,8.10
2017-10-18T22:50:11.777Z,8.20
2017-10-18T22:52:40.046Z,8.20
2017-10-18T22:55:07.562Z,8.20
2017-10-18T22:57:35.464Z,8.20
2017-10-18T23:00:03.717Z,9.40
2017-10-18T23:02:31.453Z,12.10
2017-10-18T23:04:58.965Z,8.30
2017-10-18T23:07:26.456Z,8.30
2017-10-18T23:09:53.917Z,8.20
2017-10-18T23:12:21.375Z,8.20
2017-10-18T23:14:49.191Z,8.10
2017-10-18T23:17:16.669Z,8.10
2017-10-18T23:19:44.155Z,8.00
2017-10-18T23:22:11.644Z,8.00
2017-10-18T23:24:39.128Z,8.00
2017-10-18T23:27:06.620Z,8.00
2017-10-18T23:29:34.104Z,8.00
2017-10-18T23:32:02.400Z,8.00
2017-10-18T23:34:29.875Z,8.00
2017-10-18T23:36:57.368Z,8.10
2017-10-18T23:39:24.826Z,8.10
2017-10-18T23:41:52.304Z,8.10
2017-10-18T23:44:19.803Z,8.10
2017-10-18T23:46:47.278Z,8.10
2017-10-18T23:49:15.541Z,8.10
2017-10-18T23:51:43.010Z,8.10
2017-10-18T23:54:11.265Z,7.90
2017-10-18T23:56:38.765Z,8.00
2017-10-18T23:59:06.991Z,8.00
